Flight Track Log - Related Links

Times and Time Zones

All times are in EDT time to prevent confusion due to time zone crossing. See the DAL3784 flight status page for this flight to view local times or setup timezone preferences in your user account.

Time Position Orientation Groundspeed Altitude Reporting Facility
EDT Latitude Longitude Course Direction KTS MPH feet Rate Location/Type
Fri 05:30:00 PM 44.1883 -88.1388 100° East  Level FlightAware Approximate
Fri 05:30:22 PM 44.2661 -88.3278 106° East 293 337 8,700  Level Minneapolis Center
Fri 05:31:00 PM 44.1723 -88.0115 100° East  Level FlightAware Approximate
Fri 05:31:24 PM 44.2414 -88.2111 106° East 310 357 11,200  Level Minneapolis Center
Fri 05:32:00 PM 44.1550 -87.8847 101° East  Level FlightAware Approximate
Fri 05:32:26 PM 44.2119 -88.0719 106° East 363 418 12,200  Level Minneapolis Center
Fri 05:33:00 PM 44.1369 -87.7580 101° East  Level FlightAware Approximate
Fri 05:33:28 PM 44.1806 -87.9181 106° East 406 467 13,500  Level Minneapolis Center
Fri 05:34:00 PM 44.0895 -87.6411 125° Southeast  Level Estimated
Fri 05:34:29 PM 44.1453 -87.7561 107° East 429 494 14,900  Level Minneapolis Center
Fri 05:35:31 PM 44.0944 -87.6000 114° Southeast 438 504 16,300 1,694 Climbing Minneapolis Center
Fri 05:36:33 PM 44.0203 -87.4269 121° Southeast 443 510 18,400 1,597 Climbing Minneapolis Center
Fri 05:37:35 PM 43.9572 -87.2803 121° Southeast 442 509 19,600 968 Climbing Minneapolis Center
Fri 05:38:37 PM 43.8975 -87.1417 121° Southeast 448 516 20,400 732 Climbing Minneapolis Center
Fri 05:39:38 PM 43.8314 -86.9906 121° Southeast 458 527 21,100 683 Climbing Minneapolis Center
Fri 05:40:40 PM 43.7642 -86.8358 121° Southeast 467 537 21,800 677 Climbing Minneapolis Center
Fri 05:41:42 PM 43.6967 -86.6833 121° Southeast 467 537 22,500 1,500 Climbing Minneapolis Center
Fri 05:42:44 PM 43.6197 -86.5067 121° Southeast 449 517 24,900 1,220 Climbing Minneapolis Center
Fri 05:43:45 PM 43.5606 -86.3736 122° Southeast 416 479 25,000 47 Climbing Minneapolis Center
Fri 05:44:51 PM 43.4961 -86.2314 122° Southeast 434 499 25,000 -141 Level Chicago Center
Fri 05:45:53 PM 43.4303 -86.0856 122° Southeast 445 512 24,700 -629 Descending Chicago Center
Fri 05:46:55 PM 43.3764 -85.9328 116° Southeast 447 514 23,700 -968 Descending Chicago Center
Fri 05:47:57 PM 43.3467 -85.7681 104° East 442 509 22,700 -1,073 Descending Chicago Center
Fri 05:48:58 PM 43.2786 -85.6169 122° Southeast 376 433 21,500 -829 Descending Chicago Center
Fri 05:50:00 PM 43.2158 -85.5183 131° Southeast 347 399 21,000 -242 Descending Chicago Center
Fri 05:51:02 PM 43.1625 -85.4094 124° Southeast 349 402 21,000  Level Chicago Center
Fri 05:51:45 PM 43.1489 -85.3161 101° East 345 397 21,000  Level Cleveland Center
Fri 05:52:45 PM 43.1339 -85.1728 98° East 356 410 21,000  Level Cleveland Center
Fri 05:53:45 PM 43.1192 -85.0150 97° East 384 442 21,000  Level Cleveland Center
Fri 05:54:08 PM 43.1131 -84.9586 98° East 426 490 21,000 -353 Level Chicago Center
Fri 05:55:10 PM 43.0950 -84.7917 98° East 441 507 20,500 -829 Descending Chicago Center
Fri 05:56:11 PM 43.0736 -84.5956 98° East 437 503 19,300 -1,073 Descending Chicago Center
Fri 05:57:13 PM 43.0544 -84.4392 99° East 422 486 18,300 -1,085 Descending Chicago Center
Fri 05:57:45 PM 43.0336 -84.3697 112° Southeast 429 494 17,600 -1,304 Descending Cleveland Center
Fri 05:58:45 PM 42.9867 -84.2133 112° Southeast 417 480 16,300 -1,050 Descending Cleveland Center
Fri 05:59:45 PM 42.9431 -84.0719 113° Southeast 406 467 15,500 -894 Descending Cleveland Center
Fri 06:00:19 PM 42.9183 -83.9883 112° Southeast 393 452 14,900 -1,000 Descending Cleveland Center
Fri 06:00:45 PM 42.8972 -83.9333 118° Southeast 399 459 14,500 -977 Descending Cleveland Center
Fri 06:01:45 PM 42.8531 -83.7950 113° Southeast 394 453 13,500 -1,250 Descending Cleveland Center
Fri 06:02:45 PM 42.7931 -83.7097 134° Southeast 355 409 12,000 -738 Descending Cleveland Center
Fri 06:03:47 PM 42.7272 -83.6753 159° South 240 276 12,000 -950 Level Cleveland Center
Fri 06:04:45 PM 42.6656 -83.6442 160° South 254 292 10,100 -2,127 Descending Cleveland Center
Fri 06:05:37 PM 42.6161 -83.6192 160° South 232 267 8,100 -1,912 Descending Cleveland Center
Fri 06:06:38 PM 42.5697 -83.5606 137° Southeast 251 289 6,500 -1,033 Descending Cleveland Center
Fri 06:07:39 PM 42.5742 -83.4647 86° East 269 310 6,000 -236 Descending Cleveland Center
Fri 06:08:45 PM 42.5997 -83.3589 72° East 225 259 6,000 -429 Level Cleveland Center
Fri 06:09:45 PM 42.6144 -83.2636 78° East 240 276 5,100 -976 Descending Cleveland Center
Fri 06:10:48 PM 42.5958 -83.1667 105° East 249 287 4,000 -555 Descending Cleveland Center
Fri 06:11:44 PM 42.5547 -83.1369 152° Southeast 164 189 4,000  Level Cleveland Center
Fri 06:12:45 PM 42.5169 -83.1494 194° South 139 160 4,000  Level Cleveland Center
Fri 06:13:46 PM 42.4808 -83.1789 211° Southwest 150 173 4,000  Level Cleveland Center
Fri 06:14:47 PM 42.4428 -83.2083 210° Southwest 149 171 4,000  Level Cleveland Center
Fri 06:15:48 PM 42.4044 -83.2378 210° Southwest 155 178 4,000  Level Cleveland Center
Fri 06:16:55 PM 42.3664 -83.2642 207° Southwest 142 163 4,000 -393 Level Cleveland Center
Fri 06:17:50 PM 42.3325 -83.2881 208° Southwest 147 169 3,200 -873 Descending Cleveland Center

Login

Don't have an account? Register now (free) for customized features, flight alerts, and more!